METAR stanice u blizini

 

LYBE - Beograd / Surčin, Srbija
Ažurirano: 03/07/2022 07:30
Vedro
Vedro
 Pravac vetra ZJZ
Vetar: ZJZ 13 km/h
Temperatura: 23°C
Tačka rose: 18°C
Vlažnost: 74%
Pritisak: 1018 hPa
Pregled: Vedro
Vidljivost: greater than 10 km
2022/07/03 05:30 LYBE 030530Z 25007KT CAVOK 23/18 Q1018 NOSIG
LYBT - Beograd / Batajnica, Srbija
Ažurirano: 03/07/2022 07:30
Vedro
Vedro
 Pravac vetra JZ
Vetar: JZ 6 km/h
Temperatura: 22°C
Tačka rose: 22°C
Vlažnost: 100%
Pritisak: 1018 hPa
Pregled: Vedro
Vidljivost: greater than 10 km
2022/07/03 05:30 LYBT 030530Z 22003KT 180V260 CAVOK 22/22 Q1018 NOSIG
LYVR - Vršac, Srbija
Ažurirano: 03/07/2022 07:30
Vedro
Vedro
 Pravac vetra J
Vetar: J 9 km/h
Temperatura: 24°C
Tačka rose: 18°C
Vlažnost: 69%
Pritisak: 1018 hPa
Pregled: Vedro
Vidljivost: greater than 10 km
2022/07/03 05:30 LYVR 030530Z AUTO 17005KT 140V220 CAVOK 24/18 Q1018
 
LYKV - Lađevci, Srbija
Ažurirano: 03/07/2022 07:30
Vedro
Vedro
 Pravac vetra varies
Vetar: varies 2 km/h
Temperatura: 22°C
Tačka rose: 19°C
Vlažnost: 83%
Pritisak: 1019 hPa
Pregled: Vedro
Vidljivost: greater than 10 km
2022/07/03 05:30 LYKV 030530Z VRB01KT CAVOK 22/19 Q1019 NOSIG
LYNI - Niš, Srbija
Ažurirano: 03/07/2022 07:30
Vedro
Vedro
 Pravac vetra JI
Vetar: JI 6 km/h
Temperatura: 22°C
Tačka rose: 17°C
Vlažnost: 73%
Pritisak: 1019 hPa
Pregled: Vedro
Vidljivost: greater than 10 km
2022/07/03 05:30 LYNI 030530Z 13003KT 070V210 CAVOK 22/17 Q1019 NOSIG
BKPR - Priština, Srbija
Ažurirano: 03/07/2022 07:30
Vedro
Vedro
 Pravac vetra calm
Vetar: Tišina
Temperatura: 21°C
Tačka rose: 17°C
Vlažnost: 78%
Pritisak: 1021 hPa
Pregled: Vedro
Vidljivost: greater than 10 km
2022/07/03 05:30 BKPR 030530Z 00000KT CAVOK 21/17 Q1021 NOSIG
 
LHPP - Pecs / Pogany, Hungary
Ažurirano: 03/07/2022 07:15
Vedro
Vedro
 Pravac vetra I
Vetar: I 7 km/h
Temperatura: 22°C
Tačka rose: 13°C
Vlažnost: 57%
Pritisak: 1019 hPa
Pregled: Vedro
Vidljivost: greater than 10 km
2022/07/03 05:15 LHPP 030515Z AUTO 08004KT 050V120 CAVOK 22/13 Q1019
LHUD - Szeged, Hungary
Ažurirano: 04/07/2019 01:45
NOT Current
Vedro
Vedro
 Pravac vetra S
Vetar: S 7 km/h
Temperatura: 18°C
Tačka rose: 13°C
Vlažnost: 73%
Pritisak: 1019 hPa
Pregled: Vedro
Vidljivost: greater than 10 km
2019/07/03 23:45 LHUD 032345Z 35004KT CAVOK 18/13 Q1019
LRTR - Timisoara, Romania
Ažurirano: 03/07/2022 07:30
Vedro
Vedro
 Pravac vetra IJI
Vetar: IJI 11 km/h
Temperatura: 24°C
Tačka rose: 19°C
Vlažnost: 74%
Pritisak: 1018 hPa
Pregled: Vedro
Vidljivost: greater than 10 km
2022/07/03 05:30 LRTR 030530Z 12006KT CAVOK 24/19 Q1018
 
LRCV - Craiova, Romania
Ažurirano: 03/07/2022 07:30
Vedro
Vedro
 Pravac vetra varies
Vetar: varies 4 km/h
Temperatura: 23°C
Tačka rose: 20°C
Vlažnost: 83%
Pritisak: 1018 hPa
Pregled: Vedro
Vidljivost: greater than 10 km
2022/07/03 05:30 LRCV 030530Z VRB02KT CAVOK 23/20 Q1018
LBSF - Sofia, Bulgaria
Ažurirano: 03/07/2022 07:30
Vedro
Vedro
 Pravac vetra SSI
Vetar: SSI 6 km/h
Temperatura: 20°C
Tačka rose: 16°C
Vlažnost: 78%
Pritisak: 1021 hPa
Pregled: Vedro
Vidljivost: greater than 10 km
2022/07/03 05:30 LBSF 030530Z 03003KT 340V080 CAVOK 20/16 Q1021 NOSIG
LWSK - Skoplje, Makedonija
Ažurirano: 03/07/2022 07:30
Vedro
Vedro
 Pravac vetra calm
Vetar: Tišina
Temperatura: 24°C
Tačka rose: 18°C
Vlažnost: 69%
Pritisak: 1019 hPa
Pregled: Vedro
Vidljivost: greater than 10 km
2022/07/03 05:30 LWSK 030530Z 00000KT CAVOK 24/18 Q1019 NOSIG
 
LYPG - Podgorica, Crna Gora
Ažurirano: 03/07/2022 07:30
Vedro
Vedro
 Pravac vetra SSZ
Vetar: SSZ 13 km/h
Temperatura: 29°C
Heat Index: 28°C
Tačka rose: 14°C
Vlažnost: 40%
Pritisak: 1016 hPa
Pregled: Vedro
Vidljivost: greater than 10 km
2022/07/03 05:30 LYPG 030530Z 34007KT 320V040 CAVOK 29/14 Q1016 NOSIG
LQSA - Sarajevo, Bosna i Hercegovina
Ažurirano: 03/07/2022 07:30
Vedro
Vedro
 Pravac vetra varies
Vetar: varies 4 km/h
Temperatura: 19°C
Tačka rose: 16°C
Vlažnost: 83%
Pritisak: 1020 hPa
Pregled: Vedro
Vidljivost: greater than 10 km
2022/07/03 05:30 LQSA 030530Z VRB02KT CAVOK 19/16 Q1020 NOSIG
LDOS - Osijek, Hrvatksa
Ažurirano: 03/07/2022 07:30
Vedro
Vedro
 Pravac vetra S
Vetar: S 7 km/h
Temperatura: 21°C
Tačka rose: 16°C
Vlažnost: 73%
Pritisak: 1018 hPa
Pregled: Vedro
Vidljivost: greater than 10 km
2022/07/03 05:30 LDOS 030530Z 01004KT CAVOK 21/16 Q1018